LIPX/VRN METAR and TAF weather

Enter ICAO airport designator
Station Type Date Time Source
LIPX METAR 2018/12/19 01:50 UTC NOAA

LIPX 190150Z VRB02KT 0200 R04/0375N FZFG BKN001 M04/M04 Q1026


Station Type Date Time Source
LIPX Decoded METAR 2018/12/19 01:50 UTC NOAA

Verona / Villafranca, Italy (LIPX) 45-23N 010-52E 68M
Dec 18, 2018 - 08:50 PM EST / 2018.12.19 0150 UTC
Wind: Variable at 2 MPH (2 KT):0
Visibility: less than 1 mile:0
Sky conditions: mostly cloudy
Weather: freezing fog
Temperature: 24 F (-4 C)
Dew Point: 24 F (-4 C)
Relative Humidity: 100%
Pressure (altimeter): 30.30 in. Hg (1026 hPa)
ob: LIPX 190150Z VRB02KT 0200 R04/0375N FZFG BKN001 M04/M04 Q1026
cycle: 2

Station Type Date Time Source
LIPX TAF 2014/04/22 15:24 UTC NOAA

TAF LIPX 221400Z 2215/2324 VRB05KT 9999 SCT030 SCT070
TEMPO 2215/2218 SCT025CB SCT080 PROB30
TEMPO 2215/2218 TS


Example: see airport list